Latest Coastal Weather Observations for Centre Island

IDD60701

Issued at 11:05 pm CST Sunday 23 November 2014 (issued every 10 minutes, with the page automatically refreshed every 10 minutes)

About coastal observations | Map of coastal stations | Coastal observations for NT | Marine services | Other Formats
Station Details ID: 014703 Name: CENTRE ISLAND Lat: -15.74 Lon: 136.82 Height: 12.2 m
Data from the previous 72 hours. | See also: Recent months at Centre Island
Date/Time
CST
Temp

°C
Wind Pressure Rain
since 9am
mm
Weather Cloud Vis
km
Sea
Height
m
Swell
Dir
 
Speed
knots
Gust
knots
hPa Trend Height
m
Period
s
Dir
23/11:00pm 29.8 N 10 14 1009.4 - 0.0 - - - - - - -
23/10:30pm 30.1 N 11 14 1009.8 - 0.0 - - - - - - -
23/10:00pm 30.1 NNE 11 15 1010.0 - 0.0 - - - - - - -
23/09:30pm 30.0 NNE 12 15 1009.9 - 0.0 - - - - - - -
23/09:00pm 29.9 NNE 12 15 1009.6 - 0.0 - - - - - - -
23/08:30pm 29.9 NNE 10 13 1009.2 - 0.0 - - - - - - -
23/08:00pm 30.0 NNE 10 13 1008.6 - 0.0 - - - - - - -
23/07:30pm 30.1 N 9 13 1008.2 - 0.0 - - - - - - -
23/07:00pm 30.2 N 9 13 1008.1 - 0.0 - - - - - - -
23/06:30pm 30.5 N 9 12 1008.0 - 0.0 - - - - - - -
23/06:00pm 31.5 N 7 11 1008.2 - 0.0 - - - - - - -
23/05:30pm 32.0 NNE 10 13 1008.3 - 0.0 - - - - - - -
23/05:00pm 33.4 N 10 14 1008.2 - 0.0 - - - - - - -
23/04:30pm 34.1 N 9 13 1008.3 - 0.0 - - - - - - -
23/04:00pm 34.4 N 10 14 1008.2 - 0.0 - - - - - - -
23/03:30pm 33.8 N 10 14 1008.6 - 0.0 - - - - - - -
23/03:00pm 34.4 NE 10 15 1008.8 - 0.0 - - - - - - -
23/02:30pm 34.1 NE 11 15 1009.5 - 0.0 - - - - - - -
23/02:00pm 35.6 NNW 9 15 1009.8 - 0.0 - - - - - - -
23/01:30pm 35.0 N 10 15 1009.6 - 0.0 - - - - - - -
23/01:00pm 35.3 NNW 9 15 1010.1 - 0.0 - - - - - - -
23/12:30pm 35.9 N 8 12 1010.6 - 0.0 - - - - - - -
23/12:00pm 35.2 N 8 12 1011.1 - 0.0 - - - - - - -
23/11:30am 34.4 NNW 8 13 1011.4 - 0.0 - - - - - - -
23/11:00am 34.0 N 10 15 1011.4 - 0.0 - - - - - - -
23/10:30am 34.7 N 10 16 1011.5 - 0.0 - - - - - - -
23/10:00am 34.3 NNW 9 11 1011.7 - 0.0 - - - - - - -
23/09:30am 34.2 N 7 12 1011.7 - 0.0 - - - - - - -
23/09:00am 31.4 WNW 6 8 1011.8 - 0.0 - - - - - - -
23/08:30am 30.9 WNW 7 9 1011.5 - 0.0 - - - - - - -
23/08:00am 30.4 NW 6 9 1011.3 - 0.0 - - - - - - -
23/07:30am 29.5 WNW 5 8 1011.2 - 0.0 - - - - - - -
23/07:00am 29.1 NNW 6 9 1010.7 - 0.0 - - - - - - -
23/06:30am 28.5 WNW 4 5 1010.5 - 0.0 - - - - - - -
23/06:00am 27.9 NNW 5 6 1009.9 - 0.0 - - - - - - -
23/05:30am 27.6 NW 5 6 1009.7 - 0.0 - - - - - - -
23/05:00am 27.9 NW 6 7 1009.6 - 0.0 - - - - - - -
23/04:30am 28.0 NW 5 6 1009.3 - 0.0 - - - - - - -
23/04:00am 28.1 NNW 5 5 1009.3 - 0.0 - - - - - - -
23/03:30am 28.3 NNW 2 4 1009.3 - 0.0 - - - - - - -
23/03:00am 28.4 NNW 3 4 1009.4 - 0.0 - - - - - - -
23/02:30am 28.6 NNW 4 5 1009.2 - 0.0 - - - - - - -
23/02:00am 28.6 NNW 4 6 1009.2 - 0.0 - - - - - - -
23/01:30am 28.9 WSW 1 3 1009.4 - 0.0 - - - - - - -
23/01:00am 29.3 SSW 1 3 1009.9 - 0.0 - - - - - - -
23/12:30am 29.5 SSE 5 7 1010.3 - 0.0 - - - - - - -
23/12:00am 29.4 SSW 4 6 1010.9 - 0.0 - - - - - - -
 
Date/Time
CST
Temp

°C
Wind Pressure Rain
since 9am
mm
Weather Cloud Vis
km
Sea
Height
m
Swell
Dir
 
Speed
knots
Gust
knots
hPa Trend Height
m
Period
s
Dir
22/11:30pm 29.5 SSE 5 7 1011.1 - 0.0 - - - - - - -
22/11:00pm 29.4 S 5 9 1011.2 - 0.0 - - - - - - -
22/10:30pm 29.2 N 6 10 1010.6 - 0.0 - - - - - - -
22/10:00pm 29.3 N 7 11 1010.5 - 0.0 - - - - - - -
22/09:30pm 29.4 N 8 11 1010.2 - 0.0 - - - - - - -
22/09:00pm 29.6 N 9 13 1009.8 - 0.0 - - - - - - -
22/08:30pm 29.8 N 9 13 1009.9 - 0.0 - - - - - - -
22/08:00pm 29.9 N 9 13 1009.8 - 0.0 - - - - - - -
22/07:30pm 30.0 N 10 14 1009.1 - 0.0 - - - - - - -
22/07:00pm 30.3 N 11 15 1008.6 - 0.0 - - - - - - -
22/06:30pm 30.7 N 11 16 1008.4 - 0.0 - - - - - - -
22/06:00pm 31.6 N 13 18 1008.4 - 0.0 - - - - - - -
22/05:30pm 32.5 N 13 17 1008.2 - 0.0 - - - - - - -
22/05:00pm 33.6 N 11 15 1008.0 - 0.0 - - - - - - -
22/04:30pm 34.6 NNW 11 15 1008.2 - 0.0 - - - - - - -
22/04:00pm 35.9 N 10 15 1008.4 - 0.0 - - - - - - -
22/03:30pm 35.6 N 9 13 1008.8 - 0.0 - - - - - - -
22/03:00pm 35.3 N 10 14 1008.9 - 0.0 - - - - - - -
22/02:30pm 35.2 N 11 15 1009.1 - 0.0 - - - - - - -
22/02:00pm 36.4 NNW 10 13 1009.4 - 0.0 - - - - - - -
22/01:30pm 35.2 NNE 9 14 1009.6 - 0.0 - - - - - - -
22/01:00pm 34.6 NNE 10 13 1010.2 - 0.0 - - - - - - -
22/12:30pm 35.1 NE 9 13 1010.6 - 0.0 - - - - - - -
22/12:00pm 34.9 NE 9 11 1011.1 - 0.0 - - - - - - -
22/11:30am 34.8 NNE 9 11 1011.4 - 0.0 - - - - - - -
22/11:00am 33.7 NE 7 10 1011.8 - 0.0 - - - - - - -
22/10:30am 34.1 ENE 6 8 1012.4 - 0.0 - - - - - - -
22/10:00am 33.3 NE 6 8 1012.8 - 0.0 - - - - - - -
22/09:30am 32.7 N 7 9 1012.6 - 0.0 - - - - - - -
22/09:00am 32.7 NE 6 8 1012.8 - 0.0 - - - - - - -
22/08:30am 32.2 NE 6 7 1012.8 - 0.0 - - - - - - -
22/08:00am 31.8 ENE 8 10 1012.6 - 0.0 - - - - - - -
22/07:30am 30.9 ENE 9 12 1012.4 - 0.0 - - - - - - -
22/07:00am 30.3 ENE 10 15 1011.8 - 0.0 - - - - - - -
22/06:30am 29.5 NE 9 12 1011.2 - 0.0 - - - - - - -
22/06:00am 28.7 NNE 8 10 1010.6 - 0.0 - - - - - - -
22/05:30am 28.4 N 6 8 1009.8 - 0.0 - - - - - - -
22/05:00am 28.4 N 6 9 1009.6 - 0.0 - - - - - - -
22/04:30am 28.1 N 6 9 1009.5 - 0.0 - - - - - - -
22/04:00am 27.8 N 4 6 1009.4 - 0.0 - - - - - - -
22/03:30am 27.6 N 3 5 1009.4 - 0.0 - - - - - - -
22/03:00am 27.4 NNW 2 3 1009.3 - 0.0 - - - - - - -
22/02:30am 27.7 NNW 3 3 1009.2 - 0.0 - - - - - - -
22/02:00am 28.0 NNW 3 4 1009.4 - 0.0 - - - - - - -
22/01:30am 28.1 N 4 5 1009.2 - 0.0 - - - - - - -
22/01:00am 28.4 N 4 6 1009.2 - 0.0 - - - - - - -
22/12:30am 28.5 N 5 7 1009.4 - 0.0 - - - - - - -
22/12:00am 28.9 N 7 10 1009.6 - 0.0 - - - - - - -
 
Date/Time
CST
Temp

°C
Wind Pressure Rain
since 9am
mm
Weather Cloud Vis
km
Sea
Height
m
Swell
Dir
 
Speed
knots
Gust
knots
hPa Trend Height
m
Period
s
Dir
21/11:30pm 29.1 N 7 9 1009.9 - 0.0 - - - - - - -
21/11:00pm 29.2 N 8 11 1009.9 - 0.0 - - - - - - -
21/10:30pm 29.2 N 8 10 1010.0 - 0.0 - - - - - - -
21/10:00pm 29.3 N 9 13 1009.9 - 0.0 - - - - - - -
21/09:30pm 29.4 N 10 13 1009.8 - 0.0 - - - - - - -
21/09:00pm 29.5 N 9 12 1009.8 - 0.0 - - - - - - -
21/08:30pm 29.5 N 10 14 1009.5 - 0.0 - - - - - - -
21/08:00pm 29.6 N 10 14 1009.3 - 0.0 - - - - - - -
21/07:30pm 29.9 NNE 10 13 1009.1 - 0.0 - - - - - - -
21/07:00pm 30.2 N 10 13 1008.8 - 0.0 - - - - - - -
21/06:30pm 30.4 NNE 10 14 1008.6 - 0.0 - - - - - - -
21/06:00pm 30.8 NNE 12 16 1008.2 - 0.0 - - - - - - -
21/05:30pm 32.0 N 10 15 1008.3 - 0.0 - - - - - - -
21/05:00pm 32.8 N 11 16 1008.0 - 0.0 - - - - - - -
21/04:30pm 33.2 N 11 15 1007.9 - 0.0 - - - - - - -
21/04:00pm 34.6 N 11 15 1008.1 - 0.0 - - - - - - -
21/03:30pm 34.4 N 11 15 1008.4 - 0.0 - - - - - - -
21/03:00pm 35.5 N 12 16 1008.5 - 0.0 - - - - - - -
21/02:30pm 35.1 N 12 17 1008.7 - 0.0 - - - - - - -
21/02:00pm 35.4 N 12 17 1009.1 - 0.0 - - - - - - -
21/01:30pm 35.6 N 10 14 1009.7 - 0.0 - - - - - - -
21/01:00pm 35.4 N 11 16 1010.0 - 0.0 - - - - - - -
21/12:30pm 35.8 NNE 11 15 1010.4 - 0.0 - - - - - - -
21/12:00pm 35.7 N 9 13 1010.8 - 0.0 - - - - - - -
21/11:30am 34.4 N 10 16 1011.2 - 0.0 - - - - - - -
21/11:00am 34.5 N 9 14 1011.6 - 0.0 - - - - - - -
21/10:30am 34.6 NNW 9 13 1011.8 - 0.0 - - - - - - -
21/10:00am 34.2 N 8 12 1012.0 - 0.0 - - - - - - -
21/09:30am 33.5 NNW 7 11 1011.9 - 0.0 - - - - - - -
21/09:00am 33.4 N 7 11 1011.8 - 0.0 - - - - - - -
21/08:30am 32.6 N 7 9 1011.6 - 0.0 - - - - - - -
21/08:00am 31.3 NNW 5 8 1011.4 - 0.0 - - - - - - -
21/07:30am 30.3 W 2 4 1011.2 - 0.0 - - - - - - -
21/07:00am 29.4 W 5 6 1010.7 - 0.0 - - - - - - -
21/06:30am 28.5 WNW 5 6 1010.1 - 0.0 - - - - - - -
21/06:00am 27.6 NW 5 5 1009.5 - 0.0 - - - - - - -
21/05:30am 27.6 WNW 5 6 1009.1 - 0.0 - - - - - - -
21/05:00am 27.7 NW 5 7 1008.7 - 0.0 - - - - - - -
21/04:30am 27.7 NW 6 7 1008.5 - 0.0 - - - - - - -
21/04:00am 27.7 NW 5 6 1008.2 - 0.0 - - - - - - -
21/03:30am 27.9 NW 5 7 1008.2 - 0.0 - - - - - - -
21/03:00am 28.2 NW 5 7 1008.3 - 0.0 - - - - - - -
21/02:30am 28.4 N 7 9 1008.6 - 0.0 - - - - - - -
21/02:00am 28.4 NNW 6 9 1009.1 - 0.0 - - - - - - -
21/01:30am 28.7 N 7 9 1009.2 - 0.0 - - - - - - -
21/01:00am 28.9 N 10 14 1009.4 - 0.0 - - - - - - -
21/12:30am 29.0 N 9 12 1009.6 - 0.0 - - - - - - -
21/12:00am 29.1 N 10 12 1009.8 - 0.0 - - - - - - -
 
Date/Time
CST
Temp

°C
Wind Pressure Rain
since 9am
mm
Weather Cloud Vis
km
Sea
Height
m
Swell
Dir
 
Speed
knots
Gust
knots
hPa Trend Height
m
Period
s
Dir
20/11:30pm 29.0 N 7 11 1010.3 - 0.0 - - - - - - -

Other Formats:

Comma delimited format used in spreadsheet applications
http://www.bom.gov.au/fwo/IDD60701/IDD60701.94248.axf

JavaScript Object Notation format (JSON) in row-major order
http://www.bom.gov.au/fwo/IDD60701/IDD60701.94248.json